createdAt,value
2023-05-04T00:01:05.614Z,11.43
2023-05-04T00:03:32.697Z,11.45
2023-05-04T00:05:59.499Z,11.44
2023-05-04T00:08:26.418Z,11.42
2023-05-04T00:10:54.734Z,11.40
2023-05-04T00:13:21.925Z,11.39
2023-05-04T00:15:48.978Z,11.36
2023-05-04T00:18:15.793Z,11.26
2023-05-04T00:20:42.579Z,11.24
2023-05-04T00:23:09.404Z,11.21
2023-05-04T00:25:36.282Z,11.13
2023-05-04T00:28:03.092Z,11.05
2023-05-04T00:30:29.929Z,11.02
2023-05-04T00:32:56.782Z,11.00
2023-05-04T00:35:23.542Z,10.97
2023-05-04T00:37:50.350Z,10.94
2023-05-04T00:40:17.232Z,10.98
2023-05-04T00:42:44.050Z,11.00
2023-05-04T00:45:10.987Z,11.02
2023-05-04T00:47:37.927Z,10.98
2023-05-04T00:50:05.588Z,10.95
2023-05-04T00:52:32.740Z,10.92
2023-05-04T00:55:00.890Z,10.88
2023-05-04T00:57:27.789Z,10.87
2023-05-04T00:59:54.815Z,10.87
2023-05-04T01:02:22.053Z,10.87
2023-05-04T01:04:52.809Z,10.86
2023-05-04T01:07:27.125Z,10.87
2023-05-04T01:09:59.349Z,10.88
2023-05-04T01:12:30.493Z,10.87
2023-05-04T01:14:57.451Z,10.84
2023-05-04T01:17:24.307Z,10.84
2023-05-04T01:19:54.312Z,10.82
2023-05-04T01:22:22.140Z,10.82
2023-05-04T01:24:49.211Z,10.83
2023-05-04T01:27:23.542Z,10.80
2023-05-04T01:29:54.298Z,10.81
2023-05-04T01:32:21.960Z,10.77
2023-05-04T01:34:49.081Z,10.79
2023-05-04T01:37:16.407Z,10.81
2023-05-04T01:39:43.336Z,10.82
2023-05-04T01:42:10.170Z,10.84
2023-05-04T01:44:37.046Z,10.83
2023-05-04T01:47:03.942Z,10.86
2023-05-04T01:49:30.816Z,10.88
2023-05-04T01:51:57.712Z,10.89
2023-05-04T01:54:24.510Z,10.92
2023-05-04T01:56:51.316Z,10.95
2023-05-04T01:59:21.215Z,10.92
2023-05-04T02:01:48.152Z,10.94
2023-05-04T02:04:14.992Z,10.94
2023-05-04T02:06:41.852Z,10.96
2023-05-04T02:09:08.678Z,10.94
2023-05-04T02:11:35.822Z,10.92
2023-05-04T02:14:02.687Z,10.92
2023-05-04T02:16:29.556Z,10.91
2023-05-04T02:18:56.650Z,10.92
2023-05-04T02:21:23.602Z,10.92
2023-05-04T02:23:50.622Z,10.91
2023-05-04T02:26:17.457Z,10.96
2023-05-04T02:28:44.412Z,10.94
2023-05-04T02:31:11.276Z,10.90
2023-05-04T02:33:38.095Z,10.93
2023-05-04T02:36:05.394Z,10.91
2023-05-04T02:38:32.187Z,10.91
2023-05-04T02:40:58.981Z,10.93
2023-05-04T02:43:25.757Z,10.94
2023-05-04T02:45:52.675Z,10.90
2023-05-04T02:48:19.650Z,10.86
2023-05-04T02:50:46.818Z,10.90
2023-05-04T02:53:13.652Z,10.90
2023-05-04T02:55:40.658Z,10.92
2023-05-04T02:58:07.772Z,10.87
2023-05-04T03:00:34.711Z,10.89
2023-05-04T03:03:01.936Z,10.89
2023-05-04T03:05:29.213Z,10.87
2023-05-04T03:07:57.238Z,10.88
2023-05-04T03:10:24.148Z,10.93
2023-05-04T03:12:51.012Z,10.98
2023-05-04T03:15:18.027Z,10.96
2023-05-04T03:17:45.090Z,10.95
2023-05-04T03:20:13.401Z,10.93
2023-05-04T03:22:40.193Z,10.93
2023-05-04T03:25:08.045Z,10.94
2023-05-04T03:27:34.827Z,10.94
2023-05-04T03:30:01.662Z,10.96
2023-05-04T03:32:28.554Z,10.95
2023-05-04T03:34:55.468Z,10.96
2023-05-04T03:37:22.290Z,10.93
2023-05-04T03:39:49.070Z,10.94
2023-05-04T03:42:15.845Z,10.91
2023-05-04T03:44:42.730Z,10.93
2023-05-04T03:47:09.550Z,10.89
2023-05-04T03:49:36.423Z,10.84
2023-05-04T03:52:03.283Z,10.85
2023-05-04T03:54:30.129Z,10.85
2023-05-04T03:56:56.954Z,10.85
2023-05-04T03:59:23.714Z,10.83
2023-05-04T04:01:50.810Z,10.84
2023-05-04T04:04:17.727Z,10.84
2023-05-04T04:06:45.230Z,10.86
2023-05-04T04:09:12.024Z,10.81
2023-05-04T04:11:38.800Z,10.80
2023-05-04T04:14:05.940Z,10.80
2023-05-04T04:16:32.771Z,10.78
2023-05-04T04:18:59.663Z,10.80
2023-05-04T04:21:26.740Z,10.81
2023-05-04T04:23:53.552Z,10.83
2023-05-04T04:26:21.069Z,10.85
2023-05-04T04:28:50.829Z,10.87
2023-05-04T04:31:19.164Z,10.89
2023-05-04T04:33:47.623Z,10.88
2023-05-04T04:36:17.054Z,10.92
2023-05-04T04:38:44.433Z,10.92
2023-05-04T04:41:11.302Z,10.94
2023-05-04T04:43:38.197Z,10.93
2023-05-04T04:46:05.215Z,10.95
2023-05-04T04:48:32.031Z,10.93
2023-05-04T04:50:59.390Z,10.91
2023-05-04T04:53:26.310Z,10.92
2023-05-04T04:55:54.360Z,10.96
2023-05-04T04:58:21.273Z,10.97
2023-05-04T05:00:48.066Z,10.99
2023-05-04T05:03:15.048Z,11.04
2023-05-04T05:05:41.928Z,11.05
2023-05-04T05:08:08.705Z,11.17
2023-05-04T05:10:38.684Z,11.22
2023-05-04T05:13:06.791Z,11.26
2023-05-04T05:15:33.649Z,11.28
2023-05-04T05:18:00.703Z,11.26
2023-05-04T05:20:27.857Z,11.31
2023-05-04T05:22:54.767Z,11.35
2023-05-04T05:25:21.631Z,11.39
2023-05-04T05:27:48.550Z,11.44
2023-05-04T05:30:15.573Z,11.47
2023-05-04T05:32:42.387Z,11.54
2023-05-04T05:35:09.827Z,11.58
2023-05-04T05:37:36.717Z,11.59
2023-05-04T05:40:08.200Z,11.66
2023-05-04T05:42:38.437Z,11.71
2023-05-04T05:45:05.647Z,11.74
2023-05-04T05:47:32.446Z,11.80
2023-05-04T05:49:59.396Z,11.82
2023-05-04T05:52:26.266Z,11.90
2023-05-04T05:54:53.069Z,11.98
2023-05-04T05:57:21.004Z,12.06
2023-05-04T05:59:47.885Z,12.11
2023-05-04T06:02:15.257Z,12.14
2023-05-04T06:04:42.538Z,12.16
2023-05-04T06:07:09.499Z,12.22
2023-05-04T06:09:36.881Z,12.29
2023-05-04T06:12:05.245Z,12.40
2023-05-04T06:14:32.067Z,12.48
2023-05-04T06:16:59.111Z,12.59
2023-05-04T06:19:26.039Z,12.71
2023-05-04T06:21:53.426Z,12.88
2023-05-04T06:24:22.025Z,12.99
2023-05-04T06:26:48.921Z,13.03
2023-05-04T06:29:15.935Z,13.06
2023-05-04T06:31:43.727Z,13.15
2023-05-04T06:34:12.022Z,13.37
2023-05-04T06:36:39.286Z,13.59
2023-05-04T06:39:06.181Z,13.69
2023-05-04T06:41:33.198Z,13.73
2023-05-04T06:44:01.094Z,13.70
2023-05-04T06:46:28.239Z,13.71
2023-05-04T06:48:55.376Z,13.87
2023-05-04T06:51:22.510Z,14.31
2023-05-04T06:53:49.599Z,14.53
2023-05-04T06:56:17.391Z,14.60
2023-05-04T06:58:44.401Z,14.60
2023-05-04T07:01:12.398Z,14.53
2023-05-04T07:03:50.711Z,14.53
2023-05-04T07:06:17.803Z,14.50
2023-05-04T07:08:45.148Z,14.54
2023-05-04T07:11:12.408Z,14.71
2023-05-04T07:13:39.929Z,14.76
2023-05-04T07:16:08.126Z,14.85
2023-05-04T07:18:35.360Z,14.98
2023-05-04T07:21:21.687Z,15.24
2023-05-04T07:23:49.972Z,15.35
2023-05-04T07:26:17.338Z,15.33
2023-05-04T07:28:44.520Z,15.07
2023-05-04T07:31:13.317Z,15.04
2023-05-04T07:33:40.838Z,14.93
2023-05-04T07:36:08.501Z,14.83
2023-05-04T07:38:35.889Z,14.75
2023-05-04T07:41:02.936Z,14.69
2023-05-04T07:43:29.890Z,14.68
2023-05-04T07:45:57.082Z,14.63
2023-05-04T07:48:26.159Z,14.64
2023-05-04T07:50:54.296Z,14.62
2023-05-04T07:53:21.765Z,14.65
2023-05-04T07:55:48.910Z,14.67
2023-05-04T07:58:17.014Z,14.81
2023-05-04T08:00:46.656Z,15.11
2023-05-04T08:03:13.753Z,15.51
2023-05-04T08:05:40.960Z,15.86
2023-05-04T08:08:08.945Z,16.16
2023-05-04T08:10:39.044Z,16.41
2023-05-04T08:13:06.177Z,16.69
2023-05-04T08:15:33.464Z,17.01
2023-05-04T08:18:00.498Z,16.92
2023-05-04T08:20:29.597Z,16.70
2023-05-04T08:22:56.647Z,16.49
2023-05-04T08:25:23.577Z,16.31
2023-05-04T08:27:51.789Z,16.21
2023-05-04T08:30:19.000Z,16.14
2023-05-04T08:32:46.000Z,16.07
2023-05-04T08:35:13.679Z,16.01
2023-05-04T08:37:40.760Z,15.99
2023-05-04T08:40:08.888Z,16.09
2023-05-04T08:42:35.821Z,16.12
2023-05-04T08:45:03.016Z,16.22
2023-05-04T08:47:30.178Z,16.31
2023-05-04T08:49:57.298Z,16.42
2023-05-04T08:52:25.841Z,16.46
2023-05-04T08:54:55.794Z,16.44
2023-05-04T08:57:24.504Z,16.40
2023-05-04T08:59:58.338Z,16.42
2023-05-04T09:02:25.589Z,16.52
2023-05-04T09:04:53.252Z,16.62
2023-05-04T09:07:21.213Z,16.74
2023-05-04T09:09:58.081Z,16.82
2023-05-04T09:12:27.221Z,16.98
2023-05-04T09:14:54.065Z,17.10
2023-05-04T09:17:26.145Z,17.21
2023-05-04T09:20:00.707Z,17.37
2023-05-04T09:22:28.902Z,17.41
2023-05-04T09:25:06.900Z,17.51
2023-05-04T09:27:34.298Z,17.48
2023-05-04T09:30:01.760Z,17.45
2023-05-04T09:32:29.216Z,17.41
2023-05-04T09:34:59.316Z,17.40
2023-05-04T09:37:26.387Z,17.47
2023-05-04T09:40:00.605Z,17.51
2023-05-04T09:42:29.202Z,17.53
2023-05-04T09:45:05.194Z,17.63
2023-05-04T09:47:40.759Z,17.66
2023-05-04T09:50:12.556Z,17.66
2023-05-04T09:52:40.946Z,17.61
2023-05-04T09:55:08.500Z,17.64
2023-05-04T09:57:36.937Z,17.71
2023-05-04T10:00:10.658Z,17.74
2023-05-04T10:02:38.565Z,17.83
2023-05-04T10:05:07.488Z,17.76
2023-05-04T10:07:35.306Z,17.83
2023-05-04T10:10:02.273Z,17.83
2023-05-04T10:12:29.451Z,17.88
2023-05-04T10:14:57.496Z,18.03
2023-05-04T10:17:31.446Z,18.14
2023-05-04T10:19:58.858Z,18.15
2023-05-04T10:22:29.329Z,18.19
2023-05-04T10:25:06.475Z,18.24
2023-05-04T10:27:39.914Z,18.28
2023-05-04T10:30:08.964Z,18.30
2023-05-04T10:32:40.243Z,18.35
2023-05-04T10:35:08.391Z,18.43
2023-05-04T10:37:38.059Z,18.51
2023-05-04T10:40:16.142Z,18.50
2023-05-04T10:42:44.065Z,18.50
2023-05-04T10:45:11.411Z,18.48
2023-05-04T10:47:41.210Z,18.49
2023-05-04T10:50:38.366Z,18.54
2023-05-04T10:53:05.530Z,18.54
2023-05-04T10:55:39.453Z,18.58
2023-05-04T10:58:06.624Z,18.62
2023-05-04T11:00:42.493Z,18.61
2023-05-04T11:03:12.324Z,18.67
2023-05-04T11:05:43.871Z,18.72
2023-05-04T11:08:19.863Z,18.69
2023-05-04T11:10:49.786Z,18.73
2023-05-04T11:13:17.317Z,18.73
2023-05-04T11:15:46.173Z,18.73
2023-05-04T11:18:13.371Z,18.72
2023-05-04T11:20:40.911Z,18.72
2023-05-04T11:23:10.926Z,18.65
2023-05-04T11:25:38.445Z,18.65
2023-05-04T11:28:05.732Z,18.68
2023-05-04T11:30:34.707Z,18.72
2023-05-04T11:33:03.213Z,18.76
2023-05-04T11:35:30.626Z,18.80
2023-05-04T11:37:57.740Z,18.80
2023-05-04T11:40:26.017Z,18.84
2023-05-04T11:42:56.141Z,18.92
2023-05-04T11:45:25.376Z,19.00
2023-05-04T11:47:53.129Z,19.03
2023-05-04T11:50:21.280Z,18.99
2023-05-04T11:52:49.405Z,18.94
2023-05-04T11:55:25.865Z,18.90
2023-05-04T11:58:00.919Z,18.91
2023-05-04T12:00:36.414Z,18.93
2023-05-04T12:03:04.061Z,18.96
2023-05-04T12:05:32.185Z,19.03
2023-05-04T12:07:59.306Z,19.15
2023-05-04T12:10:27.466Z,19.33
2023-05-04T12:12:54.804Z,19.48
2023-05-04T12:15:30.482Z,19.48
2023-05-04T12:17:58.474Z,19.42
2023-05-04T12:20:29.314Z,19.34
2023-05-04T12:22:56.768Z,19.22
2023-05-04T12:25:24.366Z,19.14
2023-05-04T12:27:51.957Z,19.09
2023-05-04T12:30:19.138Z,19.09
2023-05-04T12:32:46.495Z,19.12
2023-05-04T12:35:13.594Z,19.09
2023-05-04T12:37:40.610Z,19.15
2023-05-04T12:40:21.100Z,19.28
2023-05-04T12:42:55.244Z,19.37
2023-05-04T12:45:23.051Z,19.46
2023-05-04T12:47:50.246Z,19.50
2023-05-04T12:50:17.689Z,19.55
2023-05-04T12:52:45.035Z,19.57
2023-05-04T12:55:12.145Z,19.57
2023-05-04T12:57:40.041Z,19.53
2023-05-04T13:00:10.410Z,19.44
2023-05-04T13:02:38.203Z,19.34
2023-05-04T13:05:05.959Z,19.25
2023-05-04T13:07:35.303Z,19.16
2023-05-04T13:10:11.620Z,19.14
2023-05-04T13:12:38.920Z,19.03
2023-05-04T13:15:07.036Z,18.90
2023-05-04T13:17:35.336Z,18.75
2023-05-04T13:20:09.645Z,18.68
2023-05-04T13:22:36.925Z,18.62
2023-05-04T13:25:04.238Z,18.57
2023-05-04T13:27:31.576Z,18.53
2023-05-04T13:30:04.092Z,18.50
2023-05-04T13:32:31.892Z,18.41
2023-05-04T13:34:59.098Z,18.32
2023-05-04T13:37:26.349Z,18.29
2023-05-04T13:40:02.170Z,18.25
2023-05-04T13:42:30.816Z,18.22
2023-05-04T13:44:57.969Z,18.21
2023-05-04T13:47:25.601Z,18.23
2023-05-04T13:50:01.088Z,18.24
2023-05-04T13:52:28.475Z,18.27
2023-05-04T13:54:55.787Z,18.33
2023-05-04T13:57:23.066Z,18.42
2023-05-04T14:00:06.377Z,18.49
2023-05-04T14:02:42.349Z,18.53
2023-05-04T14:05:10.397Z,18.55
2023-05-04T14:07:38.047Z,18.52
2023-05-04T14:10:06.592Z,18.50
2023-05-04T14:12:33.895Z,18.46
2023-05-04T14:15:02.034Z,18.43
2023-05-04T14:17:29.211Z,18.44
2023-05-04T14:20:00.835Z,18.43
2023-05-04T14:22:28.626Z,18.43
2023-05-04T14:24:55.738Z,18.45
2023-05-04T14:27:23.206Z,18.44
2023-05-04T14:29:53.292Z,18.46
2023-05-04T14:32:22.614Z,18.46
2023-05-04T14:34:50.180Z,18.44
2023-05-04T14:37:17.234Z,18.46
2023-05-04T14:39:53.575Z,18.51
2023-05-04T14:42:21.012Z,18.51
2023-05-04T14:44:48.650Z,18.54
2023-05-04T14:47:18.344Z,18.59
2023-05-04T14:49:50.731Z,18.56
2023-05-04T14:52:19.913Z,18.51
2023-05-04T14:54:47.127Z,18.51
2023-05-04T14:57:14.240Z,18.58
2023-05-04T14:59:42.422Z,18.63
2023-05-04T15:02:09.702Z,18.61
2023-05-04T15:04:37.419Z,18.55
2023-05-04T15:07:06.093Z,18.54
2023-05-04T15:09:33.318Z,18.51
2023-05-04T15:12:00.993Z,18.55
2023-05-04T15:14:28.356Z,18.58
2023-05-04T15:16:55.488Z,18.64
2023-05-04T15:19:23.714Z,18.71
2023-05-04T15:21:50.985Z,18.73
2023-05-04T15:24:19.111Z,18.70
2023-05-04T15:26:46.604Z,18.64
2023-05-04T15:29:14.093Z,18.62
2023-05-04T15:31:44.477Z,18.60
2023-05-04T15:46:32.820Z,19.28
2023-05-04T15:49:00.598Z,19.18
2023-05-04T15:51:31.308Z,19.11
2023-05-04T15:53:59.484Z,19.08
2023-05-04T15:56:27.451Z,19.09
2023-05-04T15:58:55.327Z,19.08
2023-05-04T16:01:23.203Z,19.06
2023-05-04T16:03:51.200Z,19.05
2023-05-04T16:06:18.925Z,19.02
2023-05-04T16:08:46.734Z,18.98
2023-05-04T16:11:14.616Z,18.98
2023-05-04T16:13:42.200Z,19.00
2023-05-04T16:16:10.483Z,18.98
2023-05-04T16:18:38.704Z,18.96
2023-05-04T16:21:06.629Z,18.94
2023-05-04T16:23:34.209Z,18.93
2023-05-04T16:26:02.042Z,18.92
2023-05-04T16:28:29.889Z,18.91
2023-05-04T16:30:58.886Z,18.90
2023-05-04T16:33:27.766Z,18.91
2023-05-04T16:35:55.808Z,18.97
2023-05-04T16:38:23.553Z,19.08
2023-05-04T16:40:51.214Z,19.18
2023-05-04T16:43:18.995Z,19.27
2023-05-04T16:45:46.885Z,19.33
2023-05-04T16:48:14.854Z,19.36
2023-05-04T16:50:43.026Z,19.38
2023-05-04T16:53:12.097Z,19.43
2023-05-04T16:55:41.332Z,19.46
2023-05-04T16:58:09.286Z,19.50
2023-05-04T17:00:37.296Z,19.52
2023-05-04T17:03:05.660Z,19.56
2023-05-04T17:05:33.560Z,19.58
2023-05-04T17:08:01.567Z,19.62
2023-05-04T17:10:29.867Z,19.66
2023-05-04T17:12:58.495Z,19.69
2023-05-04T17:15:27.815Z,19.76
2023-05-04T17:17:57.174Z,19.80
2023-05-04T17:20:29.413Z,19.82
2023-05-04T17:23:00.315Z,19.82
2023-05-04T17:25:28.473Z,19.84
2023-05-04T17:27:56.221Z,19.87
2023-05-04T17:30:24.636Z,19.83
2023-05-04T17:32:54.808Z,19.83
2023-05-04T17:35:26.193Z,19.79
2023-05-04T17:37:57.966Z,19.78
2023-05-04T17:40:28.392Z,19.73
2023-05-04T17:42:57.243Z,19.72
2023-05-04T17:45:25.096Z,19.74
2023-05-04T17:47:53.372Z,19.76
2023-05-04T17:50:21.833Z,19.80
2023-05-04T17:52:53.929Z,19.80
2023-05-04T17:55:24.116Z,19.79
2023-05-04T17:57:54.358Z,19.78
2023-05-04T18:00:23.514Z,19.74
2023-05-04T18:02:52.033Z,19.72
2023-05-04T18:05:20.124Z,19.70
2023-05-04T18:07:48.157Z,19.67
2023-05-04T18:10:15.791Z,19.64
2023-05-04T18:12:43.339Z,19.64
2023-05-04T18:15:11.405Z,19.62
2023-05-04T18:17:39.373Z,19.60
2023-05-04T18:20:09.583Z,19.57
2023-05-04T18:22:37.465Z,19.53
2023-05-04T18:25:05.563Z,19.47
2023-05-04T18:27:34.672Z,19.40
2023-05-04T18:30:03.989Z,19.34
2023-05-04T18:32:31.886Z,19.26
2023-05-04T18:34:59.850Z,19.20
2023-05-04T18:37:32.043Z,19.15
2023-05-04T18:40:00.316Z,19.11
2023-05-04T18:42:28.297Z,19.09
2023-05-04T18:44:56.751Z,19.08
2023-05-04T18:47:27.567Z,19.04
2023-05-04T18:49:56.917Z,18.98
2023-05-04T18:52:24.520Z,18.95
2023-05-04T18:54:52.619Z,18.91
2023-05-04T18:57:20.192Z,18.84
2023-05-04T18:59:47.880Z,18.78
2023-05-04T19:02:15.955Z,18.72
2023-05-04T19:04:43.575Z,18.69
2023-05-04T19:07:11.207Z,18.65
2023-05-04T19:09:38.619Z,18.58
2023-05-04T19:12:06.685Z,18.52
2023-05-04T19:14:34.278Z,18.47
2023-05-04T19:17:02.787Z,18.42
2023-05-04T19:19:31.231Z,18.42
2023-05-04T19:21:59.310Z,18.43
2023-05-04T19:24:26.964Z,18.35
2023-05-04T19:26:54.837Z,18.28
2023-05-04T19:29:25.525Z,18.22
2023-05-04T19:31:52.869Z,18.19
2023-05-04T19:34:20.291Z,18.14
2023-05-04T19:36:48.058Z,18.09
2023-05-04T19:39:17.204Z,18.06
2023-05-04T19:41:49.355Z,18.00
2023-05-04T19:44:17.158Z,17.97
2023-05-04T19:46:45.971Z,17.92
2023-05-04T19:49:13.906Z,17.88
2023-05-04T19:51:41.320Z,17.85
2023-05-04T19:54:11.235Z,17.83
2023-05-04T19:56:42.365Z,17.82
2023-05-04T19:59:09.695Z,17.77
2023-05-04T20:01:37.161Z,17.77
2023-05-04T20:04:06.390Z,17.76
2023-05-04T20:06:33.758Z,17.75
2023-05-04T20:09:01.388Z,17.70
2023-05-04T20:11:31.452Z,17.65
2023-05-04T20:13:58.916Z,17.62
2023-05-04T20:16:26.498Z,17.59
2023-05-04T20:18:54.080Z,17.58
2023-05-04T20:21:21.552Z,17.53
2023-05-04T20:23:49.378Z,17.51
2023-05-04T20:26:17.576Z,17.51
2023-05-04T20:28:53.338Z,17.50
2023-05-04T20:31:20.948Z,17.48
2023-05-04T20:33:48.232Z,17.49
2023-05-04T20:36:15.447Z,17.48
2023-05-04T20:38:42.810Z,17.48
2023-05-04T20:41:10.513Z,17.46
2023-05-04T20:43:37.909Z,17.43
2023-05-04T20:46:05.317Z,17.42
2023-05-04T20:48:32.887Z,17.41
2023-05-04T20:51:13.401Z,17.39
2023-05-04T20:53:42.191Z,17.38
2023-05-04T20:56:10.381Z,17.32
2023-05-04T20:58:37.510Z,17.25
2023-05-04T21:01:05.832Z,17.23
2023-05-04T21:03:33.735Z,17.20
2023-05-04T21:06:02.582Z,17.18
2023-05-04T21:08:29.844Z,17.14
2023-05-04T21:10:57.269Z,17.10
2023-05-04T21:13:24.664Z,17.07
2023-05-04T21:15:52.497Z,17.04
2023-05-04T21:18:20.096Z,17.00
2023-05-04T21:20:47.453Z,16.99
2023-05-04T21:23:14.921Z,16.96
2023-05-04T21:25:42.139Z,16.97
2023-05-04T21:28:09.761Z,16.98
2023-05-04T21:30:40.696Z,16.97
2023-05-04T21:33:08.101Z,16.98
2023-05-04T21:35:35.460Z,16.98
2023-05-04T21:38:02.776Z,16.96
2023-05-04T21:40:30.011Z,16.94
2023-05-04T21:42:57.260Z,16.92
2023-05-04T21:45:24.474Z,16.93
2023-05-04T21:47:52.069Z,16.92
2023-05-04T21:50:19.283Z,16.88
2023-05-04T21:52:46.628Z,16.86
2023-05-04T21:55:13.894Z,16.83
2023-05-04T21:57:41.383Z,16.82
2023-05-04T22:00:12.791Z,16.82
2023-05-04T22:02:40.118Z,16.83
2023-05-04T22:05:07.813Z,16.83
2023-05-04T22:07:36.600Z,16.81
2023-05-04T22:10:05.160Z,16.80
2023-05-04T22:12:32.412Z,16.76
2023-05-04T22:14:59.636Z,16.75
2023-05-04T22:17:27.192Z,16.73
2023-05-04T22:19:54.503Z,16.73
2023-05-04T22:22:21.764Z,16.75
2023-05-04T22:24:49.043Z,16.72
2023-05-04T22:27:16.451Z,16.68
2023-05-04T22:29:43.760Z,16.64
2023-05-04T22:32:11.103Z,16.61
2023-05-04T22:34:38.290Z,16.63
2023-05-04T22:37:05.503Z,16.63
2023-05-04T22:39:32.795Z,16.60
2023-05-04T22:42:00.227Z,16.60
2023-05-04T22:44:27.426Z,16.60
2023-05-04T22:46:54.594Z,16.60
2023-05-04T22:49:21.783Z,16.61
2023-05-04T22:51:49.056Z,16.60
2023-05-04T22:54:16.378Z,16.58
2023-05-04T22:56:43.569Z,16.56
2023-05-04T22:59:10.868Z,16.57
2023-05-04T23:01:43.012Z,16.54
2023-05-04T23:04:11.723Z,16.52
2023-05-04T23:06:39.456Z,16.49
2023-05-04T23:09:06.815Z,16.47
2023-05-04T23:11:34.038Z,16.45
2023-05-04T23:14:01.423Z,16.45
2023-05-04T23:16:28.668Z,16.45
2023-05-04T23:18:56.215Z,16.43
2023-05-04T23:21:23.407Z,16.39
2023-05-04T23:23:52.359Z,16.37
2023-05-04T23:26:19.629Z,16.32
2023-05-04T23:28:46.861Z,16.31
2023-05-04T23:31:14.082Z,16.29
2023-05-04T23:33:42.095Z,16.26
2023-05-04T23:36:09.410Z,16.21
2023-05-04T23:38:36.869Z,16.21
2023-05-04T23:41:04.680Z,16.19
2023-05-04T23:43:32.292Z,16.15
2023-05-04T23:46:01.458Z,16.13
2023-05-04T23:48:29.799Z,16.14
2023-05-04T23:50:59.091Z,16.13
2023-05-04T23:53:26.633Z,16.13
2023-05-04T23:56:01.938Z,16.08
2023-05-04T23:58:31.797Z,16.08
